createdAt,value
2024-03-12T00:00:53.524Z,100.00
2024-03-12T00:03:42.747Z,100.00
2024-03-12T00:06:13.856Z,99.93
2024-03-12T00:08:43.075Z,99.98
2024-03-12T00:11:14.202Z,100.00
2024-03-12T00:13:45.089Z,100.00
2024-03-12T00:16:15.179Z,100.00
2024-03-12T00:18:46.055Z,100.00
2024-03-12T00:21:16.875Z,99.80
2024-03-12T00:23:47.969Z,100.00
2024-03-12T00:26:17.330Z,100.00
2024-03-12T00:28:48.329Z,100.00
2024-03-12T00:31:17.675Z,100.00
2024-03-12T00:33:48.996Z,100.00
2024-03-12T00:36:19.921Z,100.00
2024-03-12T00:38:51.153Z,100.00
2024-03-12T00:41:22.044Z,100.00
2024-03-12T00:43:52.841Z,100.00
2024-03-12T00:46:23.878Z,100.00
2024-03-12T00:48:53.265Z,100.00
2024-03-12T00:51:24.600Z,100.00
2024-03-12T00:53:55.508Z,100.00
2024-03-12T00:56:26.308Z,100.00
2024-03-12T00:58:57.378Z,100.00
2024-03-12T01:01:26.764Z,100.00
2024-03-12T01:03:57.701Z,100.00
2024-03-12T01:06:28.680Z,100.00
2024-03-12T01:08:59.724Z,100.00
2024-03-12T01:11:28.943Z,100.00
2024-03-12T01:14:01.120Z,100.00
2024-03-12T01:16:33.000Z,100.00
2024-03-12T01:19:04.132Z,100.00
2024-03-12T01:21:35.584Z,100.00
2024-03-12T01:24:07.356Z,100.00
2024-03-12T01:26:38.358Z,100.00
2024-03-12T01:29:09.598Z,100.00
2024-03-12T01:31:40.563Z,100.00
2024-03-12T01:34:11.705Z,100.00
2024-03-12T01:36:43.247Z,100.00
2024-03-12T01:39:14.720Z,100.00
2024-03-12T01:41:45.982Z,100.00
2024-03-12T01:44:16.979Z,100.00
2024-03-12T01:46:48.672Z,100.00
2024-03-12T01:49:20.301Z,100.00
2024-03-12T01:51:51.787Z,100.00
2024-03-12T01:54:22.909Z,100.00
2024-03-12T01:56:52.270Z,100.00
2024-03-12T01:59:23.262Z,100.00
2024-03-12T02:02:00.878Z,100.00
2024-03-12T02:04:32.054Z,100.00
2024-03-12T02:07:01.522Z,100.00
2024-03-12T02:09:32.806Z,100.00
2024-03-12T02:12:03.943Z,100.00
2024-03-12T02:14:33.186Z,100.00
2024-03-12T02:17:04.596Z,100.00
2024-03-12T02:19:35.770Z,100.00
2024-03-12T02:22:06.808Z,100.00
2024-03-12T02:24:36.099Z,100.00
2024-03-12T02:27:07.294Z,100.00
2024-03-12T02:29:38.549Z,100.00
2024-03-12T02:32:09.575Z,100.00
2024-03-12T02:34:38.811Z,100.00
2024-03-12T02:37:09.875Z,100.00
2024-03-12T02:39:41.173Z,100.00
2024-03-12T02:42:12.039Z,100.00
2024-03-12T02:44:42.959Z,100.00
2024-03-12T02:47:13.743Z,100.00
2024-03-12T02:49:44.673Z,100.00
2024-03-12T02:52:15.490Z,100.00
2024-03-12T02:54:46.675Z,100.00
2024-03-12T02:57:15.903Z,100.00
2024-03-12T02:59:46.814Z,100.00
2024-03-12T03:02:17.883Z,100.00
2024-03-12T03:04:47.225Z,100.00
2024-03-12T03:07:18.381Z,100.00
2024-03-12T03:09:49.439Z,100.00
2024-03-12T03:12:18.693Z,100.00
2024-03-12T03:14:50.823Z,100.00
2024-03-12T03:17:42.936Z,100.00
2024-03-12T03:20:14.433Z,100.00
2024-03-12T03:22:45.773Z,100.00
2024-03-12T03:25:17.004Z,100.00
2024-03-12T03:27:48.039Z,99.85
2024-03-12T03:30:19.970Z,99.21
2024-03-12T03:32:51.693Z,99.09
2024-03-12T03:35:22.726Z,99.19
2024-03-12T03:37:53.989Z,99.57
2024-03-12T03:40:25.824Z,100.00
2024-03-12T03:42:56.883Z,100.00
2024-03-12T03:45:26.970Z,100.00
2024-03-12T03:47:58.123Z,100.00
2024-03-12T03:50:27.522Z,100.00
2024-03-12T03:52:58.401Z,100.00
2024-03-12T03:55:36.290Z,100.00
2024-03-12T03:58:07.315Z,100.00
2024-03-12T04:00:37.775Z,100.00
2024-03-12T04:03:09.149Z,100.00
2024-03-12T04:05:40.137Z,100.00
2024-03-12T04:08:10.964Z,100.00
2024-03-12T04:10:41.814Z,100.00
2024-03-12T04:13:12.757Z,100.00
2024-03-12T04:15:43.961Z,100.00
2024-03-12T04:18:13.232Z,100.00
2024-03-12T04:20:44.350Z,100.00
2024-03-12T04:23:13.699Z,100.00
2024-03-12T04:25:44.740Z,100.00
2024-03-12T04:28:14.021Z,100.00
2024-03-12T04:30:45.415Z,100.00
2024-03-12T04:33:16.393Z,100.00
2024-03-12T04:35:47.617Z,100.00
2024-03-12T04:38:18.575Z,100.00
2024-03-12T04:40:49.510Z,100.00
2024-03-12T04:43:20.875Z,100.00
2024-03-12T04:45:52.070Z,100.00
2024-03-12T04:48:23.382Z,100.00
2024-03-12T04:50:54.497Z,100.00
2024-03-12T04:53:23.909Z,100.00
2024-03-12T04:55:54.778Z,100.00
2024-03-12T04:58:25.605Z,100.00
2024-03-12T05:00:58.164Z,100.00
2024-03-12T05:03:29.053Z,100.00
2024-03-12T05:06:00.272Z,100.00
2024-03-12T05:08:31.106Z,100.00
2024-03-12T05:11:02.723Z,100.00
2024-03-12T05:13:33.933Z,100.00
2024-03-12T05:16:07.240Z,100.00
2024-03-12T05:18:38.105Z,100.00
2024-03-12T05:21:07.731Z,100.00
2024-03-12T05:23:38.664Z,100.00
2024-03-12T05:26:09.694Z,100.00
2024-03-12T05:28:41.104Z,100.00
2024-03-12T05:31:18.930Z,100.00
2024-03-12T05:33:50.550Z,100.00
2024-03-12T05:36:21.541Z,100.00
2024-03-12T05:38:52.481Z,100.00
2024-03-12T05:42:03.670Z,100.00
2024-03-12T05:44:53.728Z,100.00
2024-03-12T05:47:27.481Z,100.00
2024-03-12T05:50:01.048Z,100.00
2024-03-12T05:52:43.796Z,100.00
2024-03-12T05:55:13.089Z,100.00
2024-03-12T05:57:46.551Z,100.00
2024-03-12T06:00:19.857Z,100.00
2024-03-12T06:02:51.078Z,100.00
2024-03-12T06:05:22.115Z,100.00
2024-03-12T06:07:53.158Z,100.00
2024-03-12T06:10:22.517Z,100.00
2024-03-12T06:12:53.538Z,100.00
2024-03-12T06:15:24.454Z,100.00
2024-03-12T06:17:55.481Z,100.00
2024-03-12T06:20:24.891Z,100.00
2024-03-12T06:22:55.934Z,100.00
2024-03-12T06:25:25.303Z,100.00
2024-03-12T06:27:56.734Z,100.00
2024-03-12T06:30:27.816Z,99.95
2024-03-12T06:32:57.097Z,99.23
2024-03-12T06:35:28.042Z,99.90
2024-03-12T06:37:59.620Z,99.90
2024-03-12T06:40:30.649Z,98.55
2024-03-12T06:43:01.559Z,97.57
2024-03-12T06:45:31.373Z,96.02
2024-03-12T06:48:02.347Z,95.92
2024-03-12T06:50:33.162Z,96.63
2024-03-12T06:53:04.404Z,97.28
2024-03-12T06:55:35.377Z,97.57
2024-03-12T06:58:09.048Z,97.25
2024-03-12T07:00:40.131Z,97.55
2024-03-12T07:03:09.453Z,96.02
2024-03-12T07:05:40.979Z,94.86
2024-03-12T07:08:10.210Z,95.47
2024-03-12T07:10:41.237Z,96.34
2024-03-12T07:13:10.780Z,96.04
2024-03-12T07:15:43.075Z,95.64
2024-03-12T07:18:14.175Z,94.84
2024-03-12T07:20:46.693Z,94.76
2024-03-12T07:23:17.619Z,93.96
2024-03-12T07:25:48.698Z,92.93
2024-03-12T07:28:23.230Z,93.50
2024-03-12T07:30:55.979Z,92.69
2024-03-12T07:33:26.993Z,93.43
2024-03-12T07:35:56.208Z,93.88
2024-03-12T07:38:27.054Z,93.40
2024-03-12T07:40:57.982Z,92.51
2024-03-12T07:43:27.350Z,91.73
2024-03-12T07:45:58.422Z,90.63
2024-03-12T07:48:29.563Z,90.47
2024-03-12T07:51:03.121Z,89.74
2024-03-12T07:53:34.555Z,90.32
2024-03-12T07:56:03.975Z,90.02
2024-03-12T07:58:35.020Z,89.55
2024-03-12T08:01:04.498Z,88.82
2024-03-12T08:03:35.706Z,87.63
2024-03-12T08:06:08.384Z,88.38
2024-03-12T08:08:39.369Z,88.96
2024-03-12T08:11:10.695Z,90.01
2024-03-12T08:13:42.073Z,89.92
2024-03-12T08:16:13.050Z,89.84
2024-03-12T08:18:42.639Z,89.66
2024-03-12T08:21:13.612Z,88.98
2024-03-12T08:23:44.661Z,89.31
2024-03-12T08:26:15.691Z,89.17
2024-03-12T08:28:45.039Z,89.57
2024-03-12T08:31:23.701Z,89.48
2024-03-12T08:34:02.041Z,88.96
2024-03-12T08:36:31.342Z,88.69
2024-03-12T08:39:02.497Z,88.71
2024-03-12T08:41:31.833Z,89.16
2024-03-12T08:44:02.783Z,88.65
2024-03-12T08:46:32.108Z,87.41
2024-03-12T08:49:03.720Z,86.52
2024-03-12T08:51:35.107Z,85.83
2024-03-12T08:54:06.524Z,87.03
2024-03-12T08:56:37.601Z,85.46
2024-03-12T08:59:08.785Z,86.23
2024-03-12T09:01:39.800Z,84.96
2024-03-12T09:04:11.824Z,85.53
2024-03-12T09:06:43.001Z,83.86
2024-03-12T09:09:13.919Z,85.15
2024-03-12T09:11:44.776Z,85.78
2024-03-12T09:14:14.146Z,84.20
2024-03-12T09:16:44.969Z,84.14
2024-03-12T09:19:15.993Z,85.13
2024-03-12T09:21:47.082Z,83.95
2024-03-12T09:24:16.639Z,84.39
2024-03-12T09:26:49.045Z,84.11
2024-03-12T09:29:20.359Z,83.86
2024-03-12T09:31:51.122Z,82.71
2024-03-12T09:34:22.064Z,80.50
2024-03-12T09:36:53.179Z,81.90
2024-03-12T09:39:25.078Z,81.27
2024-03-12T09:41:56.492Z,81.69
2024-03-12T09:44:27.757Z,80.59
2024-03-12T09:46:58.807Z,81.15
2024-03-12T09:49:30.880Z,81.01
2024-03-12T09:52:02.155Z,80.51
2024-03-12T09:54:33.487Z,80.74
2024-03-12T09:57:06.813Z,79.77
2024-03-12T09:59:37.916Z,79.54
2024-03-12T10:02:09.377Z,79.01
2024-03-12T10:04:40.521Z,79.37
2024-03-12T10:07:12.505Z,79.18
2024-03-12T10:09:43.542Z,79.45
2024-03-12T10:12:12.891Z,79.18
2024-03-12T10:14:46.103Z,79.09
2024-03-12T10:17:17.457Z,79.41
2024-03-12T10:19:48.516Z,78.96
2024-03-12T10:22:21.513Z,78.69
2024-03-12T10:24:52.472Z,78.49
2024-03-12T10:27:21.709Z,78.11
2024-03-12T10:29:52.563Z,77.97
2024-03-12T10:32:25.539Z,78.43
2024-03-12T10:34:56.632Z,77.36
2024-03-12T10:37:33.009Z,77.40
2024-03-12T10:40:21.163Z,76.38
2024-03-12T10:42:56.558Z,74.09
2024-03-12T10:45:27.610Z,72.84
2024-03-12T10:48:00.559Z,72.76
2024-03-12T10:50:34.241Z,73.62
2024-03-12T10:53:05.979Z,74.17
2024-03-12T10:55:43.175Z,73.46
2024-03-12T10:58:16.020Z,71.35
2024-03-12T11:00:47.165Z,72.32
2024-03-12T11:03:18.657Z,73.36
2024-03-12T11:05:50.819Z,73.15
2024-03-12T11:08:21.740Z,70.91
2024-03-12T11:10:51.372Z,68.06
2024-03-12T11:13:22.582Z,69.16
2024-03-12T11:15:56.275Z,66.77
2024-03-12T11:18:37.330Z,65.81
2024-03-12T11:21:11.532Z,66.71
2024-03-12T11:23:42.716Z,66.69
2024-03-12T11:26:16.405Z,66.08
2024-03-12T11:28:51.367Z,62.92
2024-03-12T11:31:22.473Z,63.09
2024-03-12T11:33:54.124Z,61.51
2024-03-12T11:36:33.077Z,62.38
2024-03-12T11:39:09.041Z,63.60
2024-03-12T11:42:14.761Z,62.71
2024-03-12T11:44:53.931Z,62.34
2024-03-12T11:47:35.229Z,62.60
2024-03-12T11:50:34.782Z,63.79
2024-03-12T11:53:22.451Z,63.79
2024-03-12T11:56:09.738Z,63.39
2024-03-12T11:58:43.004Z,61.72
2024-03-12T12:01:18.743Z,61.86
2024-03-12T12:03:56.425Z,60.86
2024-03-12T12:06:27.570Z,60.22
2024-03-12T12:09:01.567Z,60.56
2024-03-12T12:11:33.384Z,59.51
2024-03-12T12:14:05.592Z,61.44
2024-03-12T12:16:36.891Z,59.83
2024-03-12T12:19:09.593Z,59.51
2024-03-12T12:21:41.383Z,57.41
2024-03-12T12:24:13.100Z,59.90
2024-03-12T12:26:46.181Z,59.72
2024-03-12T12:29:17.737Z,59.91
2024-03-12T12:31:49.161Z,60.27
2024-03-12T12:34:20.962Z,59.36
2024-03-12T12:36:53.066Z,58.56
2024-03-12T12:39:32.897Z,59.05
2024-03-12T12:42:12.301Z,59.99
2024-03-12T12:44:43.197Z,60.39
2024-03-12T12:47:12.699Z,61.00
2024-03-12T12:49:52.244Z,60.32
2024-03-12T12:52:23.333Z,57.21
2024-03-12T12:54:59.812Z,57.56
2024-03-12T12:57:34.910Z,57.35
2024-03-12T13:00:16.742Z,58.77
2024-03-12T13:02:48.087Z,59.02
2024-03-12T13:05:23.612Z,58.25
2024-03-12T13:07:54.591Z,58.49
2024-03-12T13:10:23.961Z,57.90
2024-03-12T13:12:55.237Z,58.66
2024-03-12T13:15:27.373Z,58.28
2024-03-12T13:17:58.440Z,57.95
2024-03-12T13:20:29.275Z,57.33
2024-03-12T13:22:58.807Z,56.90
2024-03-12T13:25:29.900Z,57.03
2024-03-12T13:28:01.230Z,57.52
2024-03-12T13:30:32.731Z,58.16
2024-03-12T13:33:04.417Z,58.14
2024-03-12T13:35:35.402Z,57.46
2024-03-12T13:38:06.363Z,58.41
2024-03-12T13:40:37.285Z,59.03
2024-03-12T13:43:08.295Z,59.02
2024-03-12T13:45:37.658Z,58.33
2024-03-12T13:48:09.487Z,58.55
2024-03-12T13:50:40.578Z,58.76
2024-03-12T13:53:11.974Z,59.11
2024-03-12T13:55:41.829Z,59.27
2024-03-12T13:58:12.794Z,58.35
2024-03-12T14:00:44.012Z,58.17
2024-03-12T14:03:15.116Z,58.08
2024-03-12T14:05:47.861Z,58.96
2024-03-12T14:08:20.815Z,58.79
2024-03-12T14:10:53.102Z,59.23
2024-03-12T14:13:24.224Z,58.94
2024-03-12T14:15:55.367Z,58.96
2024-03-12T14:18:26.417Z,57.95
2024-03-12T14:20:57.944Z,57.33
2024-03-12T14:23:28.882Z,57.57
2024-03-12T14:26:00.071Z,58.48
2024-03-12T14:28:31.114Z,57.51
2024-03-12T14:31:02.250Z,57.08
2024-03-12T14:33:33.308Z,57.35
2024-03-12T14:36:05.329Z,57.82
2024-03-12T14:38:36.306Z,57.51
2024-03-12T14:41:05.689Z,58.22
2024-03-12T14:43:36.791Z,58.25
2024-03-12T14:46:07.887Z,58.36
2024-03-12T14:48:38.998Z,58.12
2024-03-12T14:51:10.400Z,58.18
2024-03-12T14:53:41.365Z,57.94
2024-03-12T14:56:10.649Z,58.00
2024-03-12T14:58:41.590Z,58.50
2024-03-12T15:01:11.363Z,58.61
2024-03-12T15:03:42.578Z,58.99
2024-03-12T15:06:11.971Z,58.70
2024-03-12T15:08:42.804Z,58.51
2024-03-12T15:11:14.047Z,58.81
2024-03-12T15:13:44.981Z,58.83
2024-03-12T15:16:14.198Z,58.86
2024-03-12T15:18:45.033Z,58.33
2024-03-12T15:21:16.069Z,58.14
2024-03-12T15:23:47.123Z,58.74
2024-03-12T15:26:18.056Z,58.70
2024-03-12T15:28:48.097Z,59.17
2024-03-12T15:31:19.228Z,59.37
2024-03-12T15:33:50.464Z,59.58
2024-03-12T15:36:21.577Z,59.76
2024-03-12T15:38:52.672Z,59.68
2024-03-12T15:41:23.648Z,59.99
2024-03-12T15:43:52.894Z,59.71
2024-03-12T15:46:23.838Z,59.99
2024-03-12T15:48:56.056Z,60.26
2024-03-12T15:51:26.988Z,60.15
2024-03-12T15:53:57.912Z,60.30
2024-03-12T15:56:27.226Z,60.52
2024-03-12T15:58:59.075Z,60.59
2024-03-12T16:01:41.208Z,60.73
2024-03-12T16:04:17.817Z,60.87
2024-03-12T16:06:48.879Z,60.94
2024-03-12T16:09:20.152Z,60.79
2024-03-12T16:11:51.093Z,60.99
2024-03-12T16:14:27.151Z,61.23
2024-03-12T16:17:01.507Z,61.12
2024-03-12T16:19:32.346Z,61.36
2024-03-12T16:22:46.923Z,61.43
2024-03-12T16:25:20.273Z,61.46
2024-03-12T16:27:51.207Z,61.39
2024-03-12T16:30:22.147Z,61.59
2024-03-12T16:32:53.986Z,61.81
2024-03-12T16:35:25.960Z,62.06
2024-03-12T16:37:57.026Z,62.10
2024-03-12T16:40:28.157Z,62.32
2024-03-12T16:42:59.835Z,62.29
2024-03-12T16:45:30.712Z,62.52
2024-03-12T16:47:59.986Z,62.70
2024-03-12T16:50:30.812Z,62.88
2024-03-12T16:53:01.746Z,62.91
2024-03-12T16:55:37.890Z,63.08
2024-03-12T16:58:13.246Z,63.15
2024-03-12T17:00:47.181Z,63.31
2024-03-12T17:03:20.545Z,63.40
2024-03-12T17:05:53.658Z,63.49
2024-03-12T17:08:25.245Z,63.70
2024-03-12T17:10:57.909Z,63.69
2024-03-12T17:13:30.467Z,63.90
2024-03-12T17:16:06.210Z,63.76
2024-03-12T17:18:39.719Z,63.94
2024-03-12T17:21:15.092Z,64.06
2024-03-12T17:23:48.481Z,64.05
2024-03-12T17:26:20.710Z,64.12
2024-03-12T17:28:55.855Z,64.18
2024-03-12T17:32:01.956Z,64.27
2024-03-12T17:34:25.158Z,64.57
2024-03-12T17:36:59.272Z,64.54
2024-03-12T17:39:32.063Z,64.70
2024-03-12T17:42:08.391Z,64.68
2024-03-12T17:44:42.326Z,64.96
2024-03-12T17:47:15.081Z,65.16
2024-03-12T17:49:47.545Z,65.19
2024-03-12T17:52:19.456Z,65.48
2024-03-12T17:54:53.331Z,65.49
2024-03-12T17:57:28.302Z,65.63
2024-03-12T18:00:00.343Z,65.86
2024-03-12T18:02:35.559Z,65.93
2024-03-12T18:05:08.265Z,65.97
2024-03-12T18:07:41.440Z,66.37
2024-03-12T18:10:15.052Z,66.52
2024-03-12T18:12:49.098Z,66.56
2024-03-12T18:15:20.523Z,66.80
2024-03-12T18:17:55.809Z,66.95
2024-03-12T18:20:29.821Z,67.06
2024-03-12T18:23:00.989Z,67.25
2024-03-12T18:25:33.941Z,67.37
2024-03-12T18:28:05.268Z,67.51
2024-03-12T18:30:36.285Z,67.67
2024-03-12T18:33:07.354Z,67.83
2024-03-12T18:35:36.839Z,67.86
2024-03-12T18:38:13.766Z,68.12
2024-03-12T18:40:44.985Z,68.05
2024-03-12T18:43:15.880Z,68.34
2024-03-12T18:45:45.555Z,68.47
2024-03-12T18:48:17.724Z,68.55
2024-03-12T18:50:49.452Z,68.83
2024-03-12T18:53:24.256Z,68.93
2024-03-12T18:56:05.002Z,68.92
2024-03-12T18:58:38.723Z,69.08
2024-03-12T19:01:11.806Z,69.25
2024-03-12T19:03:49.108Z,69.42
2024-03-12T19:06:31.593Z,69.55
2024-03-12T19:09:04.905Z,69.71
2024-03-12T19:11:38.630Z,69.80
2024-03-12T19:14:12.278Z,69.78
2024-03-12T19:16:47.279Z,69.97
2024-03-12T19:19:27.687Z,69.93
2024-03-12T19:22:01.063Z,70.04
2024-03-12T19:24:32.391Z,70.23
2024-03-12T19:27:07.300Z,70.39
2024-03-12T19:29:38.458Z,70.61
2024-03-12T19:32:22.651Z,70.69
2024-03-12T19:34:54.779Z,70.82
2024-03-12T19:37:27.704Z,70.81
2024-03-12T19:40:01.555Z,70.98
2024-03-12T19:42:37.063Z,70.96
2024-03-12T19:45:11.247Z,70.94
2024-03-12T19:47:46.480Z,70.95
2024-03-12T19:50:22.022Z,71.12
2024-03-12T19:52:54.167Z,71.16
2024-03-12T19:55:26.882Z,71.09
2024-03-12T19:57:59.262Z,71.27
2024-03-12T20:00:31.922Z,71.13
2024-03-12T20:03:04.930Z,71.33
2024-03-12T20:05:36.177Z,71.46
2024-03-12T20:08:09.259Z,71.55
2024-03-12T20:10:40.334Z,71.66
2024-03-12T20:13:11.617Z,71.74
2024-03-12T20:15:44.841Z,71.72
2024-03-12T20:18:16.728Z,71.76
2024-03-12T20:20:47.835Z,71.90
2024-03-12T20:23:17.243Z,71.93
2024-03-12T20:26:11.800Z,71.83
2024-03-12T20:28:40.357Z,71.87
2024-03-12T20:31:09.546Z,72.02
2024-03-12T20:33:40.948Z,72.19
2024-03-12T20:36:10.216Z,72.20
2024-03-12T20:38:41.134Z,72.23
2024-03-12T20:41:10.500Z,72.12
2024-03-12T20:43:41.441Z,72.18
2024-03-12T20:46:12.545Z,72.12
2024-03-12T20:48:43.425Z,72.20
2024-03-12T20:51:14.447Z,72.36
2024-03-12T20:53:43.704Z,72.38
2024-03-12T20:56:14.658Z,72.55
2024-03-12T20:58:43.982Z,72.68
2024-03-12T21:01:15.099Z,72.45
2024-03-12T21:03:44.381Z,72.56
2024-03-12T21:06:15.512Z,72.67
2024-03-12T21:08:45.373Z,72.73
2024-03-12T21:11:16.407Z,72.89
2024-03-12T21:13:45.769Z,72.68
2024-03-12T21:16:16.814Z,72.97
2024-03-12T21:18:46.313Z,73.23
2024-03-12T21:21:17.146Z,73.39
2024-03-12T21:23:48.160Z,73.65
2024-03-12T21:26:20.483Z,73.72
2024-03-12T21:28:52.129Z,73.68
2024-03-12T21:31:23.165Z,73.69
2024-03-12T21:33:52.453Z,73.72
2024-03-12T21:36:23.727Z,73.67
2024-03-12T21:38:54.790Z,73.68
2024-03-12T21:41:24.095Z,73.79
2024-03-12T21:43:55.163Z,73.89
2024-03-12T21:46:24.556Z,73.84
2024-03-12T21:49:18.129Z,73.78
2024-03-12T21:51:49.743Z,73.87
2024-03-12T21:54:23.704Z,73.74
2024-03-12T21:56:54.966Z,73.77
2024-03-12T21:59:26.834Z,73.99
2024-03-12T22:01:57.865Z,73.94
2024-03-12T22:04:27.339Z,74.12
2024-03-12T22:06:59.137Z,73.98
2024-03-12T22:09:30.525Z,73.81
2024-03-12T22:12:01.512Z,73.93
2024-03-12T22:14:32.718Z,73.88
2024-03-12T22:17:02.125Z,73.97
2024-03-12T22:19:33.054Z,73.87
2024-03-12T22:22:04.312Z,74.05
2024-03-12T22:24:37.151Z,74.15
2024-03-12T22:27:08.079Z,74.27
2024-03-12T22:29:37.416Z,74.20
2024-03-12T22:32:10.557Z,74.16
2024-03-12T22:34:41.450Z,74.65
2024-03-12T22:37:12.674Z,74.68
2024-03-12T22:39:44.543Z,75.09
2024-03-12T22:42:18.523Z,74.99
2024-03-12T22:44:53.572Z,74.92
2024-03-12T22:47:27.390Z,74.97
2024-03-12T22:50:00.476Z,74.87
2024-03-12T22:52:33.134Z,74.84
2024-03-12T22:55:04.913Z,74.79
2024-03-12T22:57:38.994Z,75.05
2024-03-12T23:03:02.785Z,75.37
2024-03-12T23:05:35.346Z,75.39
2024-03-12T23:08:10.571Z,75.29
2024-03-12T23:10:42.837Z,75.33
2024-03-12T23:13:14.453Z,75.43
2024-03-12T23:15:46.210Z,75.39
2024-03-12T23:18:17.210Z,75.20
2024-03-12T23:20:48.136Z,75.03
2024-03-12T23:23:19.507Z,75.14
2024-03-12T23:25:50.376Z,75.00
2024-03-12T23:28:21.754Z,75.00
2024-03-12T23:30:52.835Z,75.14
2024-03-12T23:33:23.780Z,75.06
2024-03-12T23:36:14.676Z,74.98
2024-03-12T23:38:45.589Z,74.98
2024-03-12T23:41:16.502Z,75.00
2024-03-12T23:43:47.458Z,74.86
2024-03-12T23:46:18.675Z,74.97
2024-03-12T23:48:49.662Z,74.86
2024-03-12T23:51:20.677Z,74.78
2024-03-12T23:53:50.003Z,74.84
2024-03-12T23:56:20.984Z,75.05
2024-03-12T23:58:52.613Z,75.18
